Time;durP1;ratioP1;P1;durP2;ratioP2;P2;SDS_P1;SDS_P2;PMS_P1;PMS_P2;Temp;Humidity;BMP_temperature;BMP_pressure;BME280_temperature;BME280_humidity;BME280_pressure;Samples;Min_cycle;Max_cycle;Signal;HPM_P1;HPM_P2
2023/05/30 00:00:25;;;;;;;16.75;3.28;;;;;;;10.84;100.00;102712.13;5070729;28;20048;-44
2023/05/30 00:02:51;;;;;;;17.38;2.70;;;;;;;10.81;100.00;102715.09;5082395;28;20516;-44
2023/05/30 00:05:17;;;;;;;17.33;2.80;;;;;;;10.75;100.00;102709.28;5081694;28;20047;-49
2023/05/30 00:07:42;;;;;;;20.25;2.85;;;;;;;10.72;100.00;102706.84;5080775;28;20078;-48
2023/05/30 00:10:08;;;;;;;15.18;3.08;;;;;;;10.73;100.00;102703.16;5073508;28;20055;-49
2023/05/30 00:12:33;;;;;;;15.35;2.92;;;;;;;10.70;100.00;102707.97;5075712;28;20041;-46
2023/05/30 00:14:59;;;;;;;22.48;4.15;;;;;;;10.67;100.00;102713.66;5088462;28;20024;-46
2023/05/30 00:17:26;;;;;;;12.82;2.88;;;;;;;10.67;100.00;102714.50;5084311;28;20054;-46
2023/05/30 00:19:54;;;;;;;15.20;2.40;;;;;;;10.66;100.00;102723.53;5072886;28;20063;-46
2023/05/30 00:22:20;;;;;;;;;;;;;;;10.58;100.00;102726.06;5086657;28;20020;-48
2023/05/30 00:24:46;;;;;;;16.63;2.53;;;;;;;10.61;100.00;102722.25;5074728;28;19923;-47
2023/05/30 00:27:13;;;;;;;15.98;3.35;;;;;;;10.61;100.00;102724.94;5090297;28;20105;-46
2023/05/30 00:29:38;;;;;;;18.33;3.10;;;;;;;10.57;100.00;102728.91;5072992;28;20090;-46
2023/05/30 00:32:05;;;;;;;11.07;3.00;;;;;;;10.56;100.00;102738.84;5076050;28;20036;-44
2023/05/30 00:34:31;;;;;;;18.15;3.20;;;;;;;10.52;100.00;102738.22;5089469;28;20115;-46
2023/05/30 00:36:56;;;;;;;14.68;2.45;;;;;;;10.53;100.00;102736.38;5091128;28;20116;-47
2023/05/30 00:39:21;;;;;;;21.08;3.10;;;;;;;10.50;100.00;102750.13;5069948;28;20052;-48
2023/05/30 00:41:47;;;;;;;15.25;2.78;;;;;;;10.45;100.00;102758.63;5072692;28;20504;-45
2023/05/30 00:44:12;;;;;;;17.30;2.92;;;;;;;10.45;100.00;102749.66;5081254;28;20374;-49
2023/05/30 00:46:37;;;;;;;18.80;3.00;;;;;;;10.48;100.00;102746.75;5087145;28;20106;-49
2023/05/30 00:49:03;;;;;;;15.00;3.28;;;;;;;10.49;100.00;102754.66;5081764;28;20028;-46
2023/05/30 00:51:29;;;;;;;18.80;3.17;;;;;;;10.49;100.00;102745.75;5075915;28;20087;-44
2023/05/30 00:53:55;;;;;;;21.05;3.67;;;;;;;10.46;100.00;102749.56;5084926;28;20025;-47
2023/05/30 00:56:23;;;;;;;13.48;2.97;;;;;;;10.44;100.00;102746.13;5080992;28;20055;-47
2023/05/30 00:58:50;;;;;;;21.42;3.50;;;;;;;10.45;100.00;102741.59;5088408;28;20577;-46
2023/05/30 01:01:16;;;;;;;13.40;3.00;;;;;;;10.46;100.00;102744.16;5081487;28;20487;-49
2023/05/30 01:03:42;;;;;;;15.23;2.47;;;;;;;10.44;100.00;102750.66;5086165;28;20031;-46
2023/05/30 01:06:09;;;;;;;18.58;3.10;;;;;;;10.38;100.00;102752.06;5090208;28;20039;-45
2023/05/30 01:08:34;;;;;;;14.52;3.22;;;;;;;10.37;100.00;102749.50;5073502;28;20028;-45
2023/05/30 01:11:12;;;;;;;11.38;2.65;;;;;;;10.34;100.00;102750.63;5075284;28;20036;-44
2023/05/30 01:13:50;;;;;;;21.40;3.35;;;;;;;10.33;100.00;102755.16;5072740;28;20025;-45
2023/05/30 01:16:18;;;;;;;19.15;3.40;;;;;;;10.30;100.00;102750.03;5083972;28;20032;-45
2023/05/30 01:18:53;;;;;;;16.80;3.03;;;;;;;10.30;100.00;102744.66;5091540;28;20023;-44
2023/05/30 01:21:19;;;;;;;17.35;3.05;;;;;;;10.28;100.00;102745.78;5092402;28;20089;-44
2023/05/30 01:24:15;;;;;;;18.40;3.35;;;;;;;10.23;100.00;102748.81;5092380;28;20083;-44
2023/05/30 01:26:56;;;;;;;16.13;3.10;;;;;;;10.21;100.00;102750.78;5081191;28;20024;-45
2023/05/30 01:29:23;;;;;;;19.63;3.08;;;;;;;10.19;100.00;102744.72;5071779;28;20036;-44
2023/05/30 01:31:49;;;;;;;20.67;3.58;;;;;;;10.17;100.00;102743.97;5053893;28;20041;-45
2023/05/30 01:34:15;;;;;;;24.02;3.28;;;;;;;10.20;100.00;102743.72;5075086;28;20059;-46
2023/05/30 01:36:40;;;;;;;12.65;3.50;;;;;;;10.16;100.00;102742.25;5090430;28;20149;-48
2023/05/30 01:39:06;;;;;;;17.45;3.13;;;;;;;10.19;100.00;102738.44;5091583;28;20052;-47
2023/05/30 01:42:01;;;;;;;19.13;2.92;;;;;;;10.17;100.00;102738.59;5090658;28;20039;-45
2023/05/30 01:44:32;;;;;;;16.83;3.35;;;;;;;10.16;100.00;102746.78;5088678;28;20040;-45
2023/05/30 01:47:14;;;;;;;19.63;3.42;;;;;;;10.15;100.00;102750.47;5071035;28;20035;-46
2023/05/30 01:49:57;;;;;;;17.33;3.30;;;;;;;10.10;100.00;102748.19;5078318;28;20119;-43
2023/05/30 01:52:28;;;;;;;20.10;4.28;;;;;;;10.13;100.00;102755.97;5068615;28;20028;-46
2023/05/30 01:54:56;;;;;;;12.48;2.70;;;;;;;10.07;100.00;102764.59;5072163;28;20039;-47
2023/05/30 01:57:24;;;;;;;11.77;2.70;;;;;;;10.05;100.00;102753.09;5082555;28;20402;-47
2023/05/30 01:59:50;;;;;;;19.25;2.92;;;;;;;10.08;100.00;102760.91;5076676;28;20123;-44
2023/05/30 02:02:15;;;;;;;17.63;3.30;;;;;;;10.09;100.00;102757.25;5083482;28;20083;-45
2023/05/30 02:04:40;;;;;;;21.75;3.05;;;;;;;10.06;100.00;102755.66;5069553;28;20371;-49
2023/05/30 02:07:06;;;;;;;21.45;3.47;;;;;;;10.07;100.00;102753.84;5070657;28;20093;-46
2023/05/30 02:09:31;;;;;;;18.83;3.33;;;;;;;10.08;100.00;102761.78;5077917;28;20513;-45
2023/05/30 02:11:57;;;;;;;29.92;3.35;;;;;;;10.07;100.00;102753.84;5082723;28;20386;-48
2023/05/30 02:14:22;;;;;;;15.80;3.28;;;;;;;10.06;100.00;102762.91;5084805;28;20527;-47
2023/05/30 02:16:48;;;;;;;25.90;3.00;;;;;;;10.02;100.00;102761.44;5073265;28;20482;-45
2023/05/30 02:19:14;;;;;;;22.25;3.00;;;;;;;10.05;100.00;102764.72;5077209;28;20271;-46
2023/05/30 02:21:40;;;;;;;11.32;2.85;;;;;;;10.10;100.00;102758.94;5079158;28;20441;-50
2023/05/30 02:24:05;;;;;;;17.52;3.17;;;;;;;10.16;100.00;102757.56;5073135;28;20518;-48
2023/05/30 02:26:31;;;;;;;11.65;3.08;;;;;;;10.13;100.00;102761.38;5085218;28;20036;-46
2023/05/30 02:28:56;;;;;;;26.35;3.72;;;;;;;10.18;100.00;102761.81;5068884;28;20089;-47
2023/05/30 02:31:22;;;;;;;19.60;3.20;;;;;;;10.26;100.00;102764.69;5069861;28;20052;-47
2023/05/30 02:33:47;;;;;;;17.77;3.58;;;;;;;10.31;100.00;102761.66;5069166;28;20064;-49
2023/05/30 02:36:13;;;;;;;19.02;3.28;;;;;;;10.40;100.00;102765.38;5070274;28;20039;-46
2023/05/30 02:38:38;;;;;;;16.05;3.30;;;;;;;10.45;100.00;102772.09;5090376;28;20039;-46
2023/05/30 02:41:04;;;;;;;19.80;3.60;;;;;;;10.48;100.00;102769.13;5090403;28;20503;-50
2023/05/30 02:43:30;;;;;;;15.77;2.72;;;;;;;10.55;100.00;102770.25;5059853;28;20036;-47
2023/05/30 02:45:55;;;;;;;18.23;3.30;;;;;;;10.56;100.00;102768.44;5068504;28;20082;-45
2023/05/30 02:48:21;;;;;;;21.02;3.75;;;;;;;10.59;100.00;102765.47;5052201;28;20032;-45
2023/05/30 02:50:46;;;;;;;19.27;3.53;;;;;;;10.69;100.00;102766.38;5082861;28;20020;-46
2023/05/30 02:53:12;;;;;;;12.15;2.47;;;;;;;10.71;100.00;102761.69;5081014;28;20033;-45
2023/05/30 02:55:42;;;;;;;16.63;3.45;;;;;;;10.71;100.00;102764.38;5068335;28;20526;-46
2023/05/30 02:58:08;;;;;;;19.33;3.65;;;;;;;10.71;100.00;102761.69;5080816;28;20016;-47
2023/05/30 03:00:34;;;;;;;17.38;3.30;;;;;;;10.77;100.00;102761.16;5089833;28;20073;-45
2023/05/30 03:02:59;;;;;;;22.65;4.10;;;;;;;10.81;100.00;102755.50;5068160;28;20119;-44
2023/05/30 03:05:25;;;;;;;13.18;3.22;;;;;;;10.82;100.00;102758.06;5076660;28;20178;-46
2023/05/30 03:07:51;;;;;;;17.50;3.65;;;;;;;10.80;100.00;102751.97;5085714;28;20044;-46
2023/05/30 03:10:17;;;;;;;14.23;3.42;;;;;;;10.83;100.00;102756.22;5080085;28;20017;-45
2023/05/30 03:12:42;;;;;;;19.23;3.70;;;;;;;10.86;100.00;102762.19;5069008;28;20108;-46
2023/05/30 03:15:10;;;;;;;16.27;3.55;;;;;;;10.89;100.00;102761.91;5074182;28;20024;-45
2023/05/30 03:17:37;;;;;;;13.43;2.95;;;;;;;10.89;100.00;102755.66;5085734;28;20031;-45
2023/05/30 03:20:02;;;;;;;11.68;3.17;;;;;;;10.96;100.00;102764.91;5086996;28;20367;-45
2023/05/30 03:22:28;;;;;;;17.92;3.30;;;;;;;10.96;100.00;102762.22;5084955;28;20040;-47
2023/05/30 03:24:53;;;;;;;10.90;3.05;;;;;;;10.99;100.00;102767.31;5071458;28;20036;-45
2023/05/30 03:27:19;;;;;;;14.05;3.30;;;;;;;11.04;100.00;102762.38;5088406;28;20035;-44
2023/05/30 03:29:45;;;;;;;15.65;3.40;;;;;;;11.02;100.00;102758.97;5068292;28;20510;-45
2023/05/30 03:32:11;;;;;;;22.95;3.67;;;;;;;11.13;100.00;102761.53;5074573;28;20567;-45
2023/05/30 03:34:37;;;;;;;10.07;2.90;;;;;;;11.11;100.00;102755.47;5054823;28;20034;-45
2023/05/30 03:37:04;;;;;;;17.25;3.22;;;;;;;11.11;100.00;102760.84;5090508;28;20032;-44
2023/05/30 03:39:30;;;;;;;15.55;3.50;;;;;;;11.16;100.00;102755.88;5080969;28;20024;-45
2023/05/30 03:41:55;;;;;;;13.38;3.30;;;;;;;11.12;100.00;102761.69;5093103;28;20030;-47
2023/05/30 03:44:21;;;;;;;11.02;3.35;;;;;;;11.15;100.00;102761.41;5077486;28;20020;-46
2023/05/30 03:46:47;;;;;;;14.70;3.90;;;;;;;11.12;100.00;102757.16;5073744;28;20059;-49
2023/05/30 03:49:12;;;;;;;15.55;3.92;;;;;;;11.12;100.00;102759.00;5073443;28;20394;-44
2023/05/30 03:51:38;;;;;;;10.15;3.88;;;;;;;11.09;100.00;102757.44;5076243;28;20036;-46
2023/05/30 03:54:03;;;;;;;32.47;4.03;;;;;;;11.08;100.00;102765.63;5080707;28;20048;-46
2023/05/30 03:56:30;;;;;;;14.10;3.78;;;;;;;11.09;100.00;102757.44;5073740;28;20526;-47
2023/05/30 03:58:57;;;;;;;11.88;3.97;;;;;;;11.06;100.00;102763.09;5080181;28;20038;-46
2023/05/30 04:01:23;;;;;;;18.35;4.40;;;;;;;11.08;100.00;102768.34;5081762;28;20393;-46
2023/05/30 04:03:48;;;;;;;14.50;3.97;;;;;;;11.08;100.00;102774.56;5079364;28;20085;-46
2023/05/30 04:06:14;;;;;;;18.63;3.75;;;;;;;11.10;100.00;102769.91;5079959;28;20060;-46
2023/05/30 04:08:40;;;;;;;17.02;4.15;;;;;;;11.15;100.00;102775.72;5074649;28;20054;-44
2023/05/30 04:11:06;;;;;;;11.57;3.97;;;;;;;11.15;100.00;102772.19;5085527;28;20267;-48
2023/05/30 04:13:32;;;;;;;14.98;3.72;;;;;;;11.14;100.00;102771.34;5073768;28;20082;-45
2023/05/30 04:16:01;;;;;;;17.02;4.03;;;;;;;11.18;100.00;102771.91;5075593;28;20052;-46
2023/05/30 04:18:26;;;;;;;12.60;3.80;;;;;;;11.24;100.00;102776.72;5079485;28;20049;-47
2023/05/30 04:20:52;;;;;;;22.45;4.13;;;;;;;11.21;100.00;102777.00;5076726;28;20529;-47
2023/05/30 04:23:17;;;;;;;15.82;4.05;;;;;;;11.25;100.00;102777.59;5081590;28;20450;-44
2023/05/30 04:25:44;;;;;;;14.30;3.47;;;;;;;11.25;100.00;102783.00;5090125;28;20466;-43
2023/05/30 04:28:12;;;;;;;15.35;3.47;;;;;;;11.29;100.00;102779.88;5075779;28;20233;-46
2023/05/30 04:30:38;;;;;;;7.80;3.15;;;;;;;11.28;100.00;102782.72;5092987;28;20453;-45
2023/05/30 04:33:04;;;;;;;15.85;3.30;;;;;;;11.30;100.00;102786.13;5094703;28;20501;-47
2023/05/30 04:35:30;;;;;;;17.98;3.75;;;;;;;11.24;100.00;102781.28;5084954;28;20029;-46
2023/05/30 04:37:56;;;;;;;17.17;4.05;;;;;;;11.27;100.00;102797.16;5073407;28;20520;-45
2023/05/30 04:40:22;;;;;;;13.57;4.93;;;;;;;11.27;100.00;102781.88;5078712;28;20024;-46
2023/05/30 04:42:51;;;;;;;9.95;3.35;;;;;;;11.27;100.00;102789.06;5090831;28;20025;-47
2023/05/30 04:45:18;;;;;;;15.90;3.65;;;;;;;11.35;100.00;102786.56;5084434;28;20030;-46
2023/05/30 04:47:45;;;;;;;19.23;3.85;;;;;;;11.43;100.00;102786.72;5091830;28;20032;-47
2023/05/30 04:50:12;;;;;;;15.90;3.47;;;;;;;11.38;100.00;102791.69;5089928;28;20024;-47
2023/05/30 04:52:38;;;;;;;11.20;3.70;;;;;;;11.38;100.00;102788.97;5080477;28;20044;-47
2023/05/30 04:55:03;;;;;;;16.25;3.97;;;;;;;11.48;100.00;102784.44;5080665;28;20036;-45
2023/05/30 04:57:28;;;;;;;18.52;4.00;;;;;;;11.55;100.00;102788.28;5086067;28;20076;-49
2023/05/30 04:59:55;;;;;;;14.77;4.22;;;;;;;11.57;100.00;102789.00;5080557;28;20508;-44
2023/05/30 05:02:21;;;;;;;26.23;4.60;;;;;;;11.63;100.00;102788.41;5082660;28;20021;-45
2023/05/30 05:04:46;;;;;;;18.45;3.83;;;;;;;11.64;100.00;102794.69;5079175;28;20052;-45
2023/05/30 05:07:12;;;;;;;16.77;4.35;;;;;;;11.63;100.00;102806.44;5082365;28;20061;-49
2023/05/30 05:09:37;;;;;;;14.20;3.85;;;;;;;11.63;100.00;102801.91;5092779;28;20039;-44
2023/05/30 05:12:03;;;;;;;15.00;3.80;;;;;;;11.65;100.00;102794.53;5092611;28;20424;-45
2023/05/30 05:14:28;;;;;;;13.45;4.00;;;;;;;11.70;100.00;102796.81;5086020;28;20028;-46
2023/05/30 05:16:53;;;;;;;11.82;3.58;;;;;;;11.69;100.00;102795.13;5079886;28;20626;-46
2023/05/30 05:19:19;;;;;;;11.90;4.05;;;;;;;11.71;100.00;102792.25;5102109;28;20027;-46
2023/05/30 05:21:44;;;;;;;13.27;4.22;;;;;;;11.73;100.00;102784.88;5082432;28;20036;-43
2023/05/30 05:24:10;;;;;;;7.95;3.22;;;;;;;11.72;100.00;102792.13;5071690;28;20076;-46
2023/05/30 05:26:35;;;;;;;15.48;3.85;;;;;;;11.72;100.00;102792.13;5087301;28;20036;-47
2023/05/30 05:29:01;;;;;;;9.93;3.45;;;;;;;11.83;100.00;102789.28;5091555;28;20063;-48
2023/05/30 05:31:27;;;;;;;13.85;3.67;;;;;;;11.86;100.00;102791.72;5079936;28;20032;-45
2023/05/30 05:33:52;;;;;;;9.75;4.00;;;;;;;11.91;100.00;102775.09;5090826;28;20024;-48
2023/05/30 05:36:18;;;;;;;12.52;3.92;;;;;;;12.02;100.00;102788.44;5081240;28;20047;-48
2023/05/30 05:38:43;;;;;;;11.38;3.78;;;;;;;12.07;100.00;102785.31;5084818;28;20024;-46
2023/05/30 05:41:09;;;;;;;18.35;4.00;;;;;;;12.11;100.00;102793.97;5090386;28;20430;-46
2023/05/30 05:43:35;;;;;;;16.35;3.60;;;;;;;12.11;100.00;102785.88;5073241;28;20032;-48
2023/05/30 05:46:01;;;;;;;12.18;4.32;;;;;;;12.16;100.00;102797.94;5080782;28;20336;-46
2023/05/30 05:48:26;;;;;;;13.38;3.90;;;;;;;12.19;100.00;102796.78;5075160;28;20043;-45
2023/05/30 05:50:52;;;;;;;17.55;4.28;;;;;;;12.28;100.00;102785.97;5070693;28;20092;-45
2023/05/30 05:53:17;;;;;;;19.42;4.32;;;;;;;12.41;100.00;102795.63;5080883;28;20028;-48
2023/05/30 05:55:44;;;;;;;16.25;4.68;;;;;;;12.42;100.00;102794.63;5088843;28;20034;-47
2023/05/30 05:58:09;;;;;;;10.95;3.70;;;;;;;12.46;100.00;102786.09;5091231;28;20032;-45
2023/05/30 06:00:35;;;;;;;15.98;3.72;;;;;;;12.46;100.00;102791.47;5072021;28;20126;-46
2023/05/30 06:03:00;;;;;;;20.05;4.30;;;;;;;12.49;100.00;102793.88;5088075;28;20521;-45
2023/05/30 06:05:25;;;;;;;19.20;4.18;;;;;;;12.52;100.00;102796.28;5089134;28;20104;-46
2023/05/30 06:07:51;;;;;;;14.43;3.50;;;;;;;12.48;100.00;102789.50;5090856;28;20051;-50
2023/05/30 06:10:16;;;;;;;11.98;3.22;;;;;;;12.50;100.00;102795.56;5087549;28;20032;-45
2023/05/30 06:12:42;;;;;;;12.68;3.42;;;;;;;12.54;100.00;102798.00;5081889;28;20526;-46
2023/05/30 06:15:08;;;;;;;23.23;4.03;;;;;;;12.60;100.00;102800.13;5078130;28;20382;-49
2023/05/30 06:17:34;;;;;;;21.75;4.70;;;;;;;12.70;100.00;102792.81;5074155;28;20064;-48
2023/05/30 06:19:59;;;;;;;17.60;3.88;;;;;;;12.87;100.00;102786.63;5087248;28;20056;-47
2023/05/30 06:22:24;;;;;;;14.65;3.17;;;;;;;13.01;100.00;102800.66;5072193;28;20028;-46
2023/05/30 06:24:51;;;;;;;20.35;4.10;;;;;;;13.10;100.00;102794.34;5088414;28;20024;-45
2023/05/30 06:27:16;;;;;;;12.10;3.33;;;;;;;13.04;100.00;102808.47;5083992;28;20039;-44
2023/05/30 06:29:42;;;;;;;11.18;3.70;;;;;;;13.06;100.00;102809.16;5089157;28;20020;-48
2023/05/30 06:32:10;;;;;;;18.02;4.30;;;;;;;13.04;100.00;102797.66;5076219;28;20051;-46
2023/05/30 06:34:35;;;;;;;15.23;3.70;;;;;;;12.98;100.00;102796.41;5068512;28;20040;-46
2023/05/30 06:37:01;;;;;;;17.77;3.88;;;;;;;13.04;100.00;102798.50;5076576;28;20346;-48
2023/05/30 06:39:27;;;;;;;12.25;3.67;;;;;;;13.01;100.00;102803.38;5090473;28;20020;-46
2023/05/30 06:41:53;;;;;;;20.38;3.92;;;;;;;12.94;100.00;102809.34;5082641;28;20050;-46
2023/05/30 06:44:18;;;;;;;10.40;3.42;;;;;;;13.00;100.00;102820.56;5059385;28;20038;-45
2023/05/30 06:46:43;;;;;;;16.30;3.40;;;;;;;13.08;100.00;102818.81;5077626;28;20034;-48
2023/05/30 06:49:09;;;;;;;14.02;3.53;;;;;;;13.10;100.00;102822.22;5083475;28;20068;-45
2023/05/30 06:51:35;;;;;;;17.65;3.50;;;;;;;13.11;100.00;102823.06;5082741;28;20043;-49
2023/05/30 06:54:00;;;;;;;8.25;3.03;;;;;;;13.22;100.00;102814.78;5082586;28;20097;-42
2023/05/30 06:56:26;;;;;;;16.08;3.55;;;;;;;13.36;100.00;102818.84;5085153;28;20055;-45
2023/05/30 06:58:51;;;;;;;16.75;4.13;;;;;;;13.47;100.00;102820.47;5081088;28;20055;-50
2023/05/30 07:01:17;;;;;;;17.33;4.00;;;;;;;13.48;100.00;102817.63;5082242;28;20033;-47
2023/05/30 07:03:42;;;;;;;18.20;3.85;;;;;;;13.52;100.00;102820.88;5083712;28;20133;-44
2023/05/30 07:06:07;;;;;;;23.73;4.47;;;;;;;13.47;100.00;102817.78;5084053;28;20021;-48
2023/05/30 07:08:33;;;;;;;13.50;3.63;;;;;;;13.57;100.00;102813.16;5083936;28;20028;-48
2023/05/30 07:10:58;;;;;;;27.42;4.13;;;;;;;13.76;100.00;102813.00;5083049;28;20132;-45
2023/05/30 07:13:23;;;;;;;11.55;3.10;;;;;;;13.80;100.00;102818.97;5087104;28;20493;-47
2023/05/30 07:15:49;;;;;;;12.55;3.40;;;;;;;13.90;100.00;102818.88;5086843;28;20110;-46
2023/05/30 07:18:14;;;;;;;16.38;3.42;;;;;;;14.32;100.00;102815.47;5088091;28;20043;-46
2023/05/30 07:20:40;;;;;;;21.08;3.78;;;;;;;14.67;100.00;102811.84;5088381;28;20032;-47
2023/05/30 07:23:06;;;;;;;13.10;3.60;;;;;;;14.84;100.00;102815.50;5087960;28;20031;-44
2023/05/30 07:25:31;;;;;;;13.18;3.13;;;;;;;15.72;100.00;102806.97;5088709;28;20430;-49
2023/05/30 07:27:56;;;;;;;14.30;3.70;;;;;;;17.31;100.00;102804.44;5086567;28;20141;-48
2023/05/30 07:30:22;;;;;;;9.57;3.00;;;;;;;18.97;90.19;102811.84;5086091;28;20031;-50
2023/05/30 07:32:47;;;;;;;11.75;3.55;;;;;;;18.88;85.81;102802.94;5086801;28;20366;-48
2023/05/30 07:35:13;;;;;;;19.75;3.63;;;;;;;18.59;86.80;102810.03;5088371;28;20563;-49
2023/05/30 07:37:38;;;;;;;12.68;3.97;;;;;;;19.00;86.50;102808.72;5088148;28;20126;-47
2023/05/30 07:40:05;;;;;;;17.60;3.60;;;;;;;19.40;84.63;102801.84;5086911;28;20535;-48
2023/05/30 07:42:31;;;;;;;20.13;4.03;;;;;;;20.50;79.33;102796.97;5088974;28;20077;-45
2023/05/30 07:44:56;;;;;;;15.50;3.60;;;;;;;20.69;77.23;102807.22;5088260;28;20949;-46
2023/05/30 07:47:22;;;;;;;16.80;3.78;;;;;;;20.79;75.30;102806.84;5088442;28;20086;-48
2023/05/30 07:49:47;;;;;;;12.95;3.15;;;;;;;21.10;73.82;102811.84;5087585;28;20035;-45
2023/05/30 07:52:12;;;;;;;14.70;3.60;;;;;;;21.15;73.76;102820.31;5087198;28;20035;-47
2023/05/30 07:54:38;;;;;;;16.35;3.38;;;;;;;21.25;73.85;102820.75;5088852;28;20043;-49
2023/05/30 07:57:04;;;;;;;14.55;3.72;;;;;;;21.29;72.12;102818.44;5088191;28;20087;-46
2023/05/30 07:59:29;;;;;;;11.05;3.78;;;;;;;21.41;70.64;102810.53;5087802;28;20039;-44
2023/05/30 08:01:55;;;;;;;15.40;3.65;;;;;;;21.43;71.27;102808.41;5084606;28;20040;-46
2023/05/30 08:04:21;;;;;;;18.10;4.03;;;;;;;21.30;71.77;102813.81;5086831;28;20407;-49
2023/05/30 08:06:46;;;;;;;12.77;3.20;;;;;;;21.14;71.52;102810.38;5087436;28;20039;-47
2023/05/30 08:09:11;;;;;;;13.30;3.75;;;;;;;21.60;71.79;102803.41;5086836;28;20020;-48
2023/05/30 08:11:37;;;;;;;13.35;3.50;;;;;;;21.77;69.30;102803.84;5085619;28;20036;-48
2023/05/30 08:14:03;;;;;;;16.40;4.03;;;;;;;21.51;70.58;102805.47;5089021;28;20040;-45
2023/05/30 08:16:29;;;;;;;13.98;3.85;;;;;;;21.47;70.95;102790.50;5087593;28;20043;-48
2023/05/30 08:18:56;;;;;;;11.82;3.38;;;;;;;21.21;71.04;102794.81;5086966;28;20871;-47
2023/05/30 08:21:21;;;;;;;14.55;3.05;;;;;;;20.63;74.31;102790.78;5086999;28;20061;-45
2023/05/30 08:23:47;;;;;;;19.10;5.10;;;;;;;19.73;77.65;102787.75;5086738;28;20081;-45
2023/05/30 08:26:12;;;;;;;15.00;3.80;;;;;;;19.00;82.41;102795.94;5086502;28;20411;-45
2023/05/30 08:28:38;;;;;;;16.08;3.40;;;;;;;18.59;85.32;102788.22;5085875;28;20031;-47
2023/05/30 08:31:05;;;;;;;16.15;3.85;;;;;;;18.27;87.81;102794.00;5084776;28;20067;-46
2023/05/30 08:33:32;;;;;;;17.90;3.90;;;;;;;18.43;89.12;102793.84;5086728;28;20040;-47
2023/05/30 08:35:57;;;;;;;14.88;3.53;;;;;;;19.39;83.12;102780.22;5085293;28;20174;-45
2023/05/30 08:38:22;;;;;;;15.52;3.53;;;;;;;20.43;80.08;102783.25;5085245;28;20537;-46
2023/05/30 08:40:51;;;;;;;13.52;3.53;;;;;;;21.44;73.87;102793.66;5086663;28;20061;-45
2023/05/30 08:43:17;;;;;;;11.20;3.17;;;;;;;22.08;71.01;102781.28;5086911;28;20024;-44
2023/05/30 08:45:42;;;;;;;13.30;3.47;;;;;;;22.66;67.18;102791.56;5084546;28;20063;-46
2023/05/30 08:48:09;;;;;;;15.15;3.47;;;;;;;22.79;64.93;102786.88;5069948;28;20024;-48
2023/05/30 08:50:36;;;;;;;13.07;3.38;;;;;;;22.94;64.69;102783.88;5087219;28;20307;-46
2023/05/30 08:53:10;;;;;;;9.50;3.03;;;;;;;22.93;63.63;102771.22;5086913;28;20134;-48
2023/05/30 08:55:46;;;;;;;15.68;3.47;;;;;;;23.34;64.28;102772.69;5086125;28;20492;-45
2023/05/30 08:58:33;;;;;;;13.23;3.33;;;;;;;23.25;62.71;102770.44;5085772;28;20060;-49
2023/05/30 09:00:59;;;;;;;12.77;4.10;;;;;;;23.42;62.30;102768.84;5082204;28;20040;-45
2023/05/30 09:03:25;;;;;;;11.75;3.65;;;;;;;23.63;61.85;102768.47;5079635;28;20051;-46
2023/05/30 09:05:51;;;;;;;12.50;3.50;;;;;;;23.74;61.63;102758.69;5085529;28;20024;-47
2023/05/30 09:08:17;;;;;;;11.32;3.75;;;;;;;24.18;60.16;102758.75;5087184;28;20028;-49
2023/05/30 09:10:51;;;;;;;13.90;3.58;;;;;;;24.41;60.24;102755.31;5083978;28;20021;-46
2023/05/30 09:13:16;;;;;;;18.45;4.00;;;;;;;24.74;57.39;102754.97;5071712;28;20131;-46
2023/05/30 09:15:44;;;;;;;8.18;3.20;;;;;;;24.67;58.04;102763.34;5085833;28;20107;-47
2023/05/30 09:18:09;;;;;;;;;;;;;;;24.31;57.84;102747.63;5086647;28;20035;-47
2023/05/30 09:20:37;;;;;;;10.93;3.08;;;;;;;24.46;56.71;102764.63;5085607;28;19911;-47
2023/05/30 09:23:03;;;;;;;12.52;4.65;;;;;;;24.21;58.29;102744.53;5083094;28;20039;-45
2023/05/30 09:25:41;;;;;;;12.15;3.53;;;;;;;24.57;59.42;102743.75;5085501;28;20044;-47
2023/05/30 09:28:06;;;;;;;12.38;3.38;;;;;;;24.83;56.50;102761.00;5086399;28;20040;-50
2023/05/30 09:30:31;;;;;;;14.60;4.05;;;;;;;24.88;56.67;102755.66;5084595;28;20032;-48
2023/05/30 09:33:03;;;;;;;10.70;3.13;;;;;;;24.95;55.15;102750.91;5086369;28;20032;-46
2023/05/30 09:35:29;;;;;;;17.52;4.20;;;;;;;24.63;54.12;102759.34;5084306;28;20048;-50
2023/05/30 09:37:54;;;;;;;10.25;3.10;;;;;;;24.50;56.15;102751.25;5084270;28;20051;-47
2023/05/30 09:40:20;;;;;;;16.20;3.53;;;;;;;24.73;56.26;102747.81;5086130;28;20032;-47
2023/05/30 09:42:47;;;;;;;14.70;3.65;;;;;;;24.93;54.81;102753.88;5066749;28;20039;-49
2023/05/30 09:45:14;;;;;;;13.52;3.42;;;;;;;24.97;55.36;102749.59;5085581;28;20105;-47
2023/05/30 09:47:46;;;;;;;14.95;3.60;;;;;;;24.72;54.17;102757.97;5083575;28;20092;-48
2023/05/30 09:50:23;;;;;;;10.77;3.25;;;;;;;24.09;57.47;102755.44;5083671;28;20438;-48
2023/05/30 09:52:51;;;;;;;14.43;3.90;;;;;;;24.12;56.54;102746.75;5062739;28;20028;-48
2023/05/30 09:55:17;;;;;;;11.30;3.15;;;;;;;24.04;58.09;102747.00;5084304;28;20517;-44
2023/05/30 09:57:48;;;;;;;9.07;3.15;;;;;;;24.42;55.45;102754.28;5083860;28;20170;-45
2023/05/30 10:00:16;;;;;;;13.10;3.20;;;;;;;24.10;57.72;102744.22;5083592;28;20234;-46
2023/05/30 10:02:44;;;;;;;10.65;2.88;;;;;;;23.80;58.41;102748.72;5086258;28;20119;-47
2023/05/30 10:05:19;;;;;;;10.95;3.22;;;;;;;23.75;59.90;102743.91;5081443;28;20234;-45
2023/05/30 10:07:47;;;;;;;8.85;2.92;;;;;;;23.78;60.64;102740.72;5083087;28;20171;-46
2023/05/30 10:10:16;;;;;;;10.75;2.92;;;;;;;23.60;62.10;102746.94;5080826;28;20028;-48
2023/05/30 10:12:42;;;;;;;11.13;3.75;;;;;;;23.65;61.69;102746.28;5082637;28;20024;-47
2023/05/30 10:15:09;;;;;;;8.23;3.10;;;;;;;23.47;62.72;102748.97;5082188;28;20569;-47
2023/05/30 10:17:36;;;;;;;9.68;2.75;;;;;;;23.14;64.17;102739.84;5085554;28;20024;-45
2023/05/30 10:20:06;;;;;;;9.38;3.05;;;;;;;23.27;63.95;102736.16;5083978;28;20043;-46
2023/05/30 10:22:40;;;;;;;12.40;2.97;;;;;;;23.44;63.83;102729.09;5066232;28;20035;-48
2023/05/30 10:25:07;;;;;;;9.52;3.05;;;;;;;22.74;67.17;102734.50;5082301;28;20035;-46
2023/05/30 10:27:33;;;;;;;;;;;;;;;22.37;69.25;102744.34;5083219;28;20035;-45
2023/05/30 10:30:07;;;;;;;8.65;2.60;;;;;;;22.07;69.73;102747.53;5066038;28;19938;-48
2023/05/30 10:32:36;;;;;;;6.07;2.92;;;;;;;21.38;76.59;102751.53;5081839;28;20139;-50
2023/05/30 10:35:15;;;;;;;8.90;2.88;;;;;;;21.03;81.27;102753.47;5082965;28;20032;-47
2023/05/30 10:37:41;;;;;;;6.53;2.40;;;;;;;20.82;82.69;102758.03;5082503;28;20469;-45
2023/05/30 10:40:09;;;;;;;6.85;2.42;;;;;;;20.46;83.07;102751.91;5083227;28;20039;-47
2023/05/30 10:42:41;;;;;;;9.63;2.20;;;;;;;19.87;86.19;102754.03;5083106;28;20516;-45
2023/05/30 10:45:17;;;;;;;5.57;2.30;;;;;;;19.50;88.73;102744.19;5083315;28;20078;-46
2023/05/30 10:47:56;;;;;;;6.47;2.55;;;;;;;18.99;92.32;102742.41;5082881;28;20036;-46
2023/05/30 10:50:30;;;;;;;5.25;2.33;;;;;;;18.84;93.92;102752.50;5084501;28;20062;-46
2023/05/30 10:52:57;;;;;;;7.07;2.78;;;;;;;18.62;95.42;102744.22;5081928;28;20039;-48
2023/05/30 10:55:24;;;;;;;8.23;2.78;;;;;;;18.61;96.82;102744.38;5084186;28;20486;-47
2023/05/30 10:57:50;;;;;;;5.25;2.08;;;;;;;18.42;97.10;102749.38;5082005;28;20549;-48
2023/05/30 11:00:22;;;;;;;5.07;2.38;;;;;;;18.39;98.77;102748.91;5081942;28;20171;-49
2023/05/30 11:02:52;;;;;;;5.68;2.55;;;;;;;18.35;99.45;102753.03;5082222;28;20031;-50
2023/05/30 11:05:26;;;;;;;6.53;2.38;;;;;;;18.42;100.00;102743.06;5084284;28;20181;-46
2023/05/30 11:07:52;;;;;;;6.15;2.65;;;;;;;18.32;100.00;102750.69;5083084;28;20028;-47
2023/05/30 11:10:25;;;;;;;7.43;2.35;;;;;;;18.24;100.00;102739.88;5082187;28;20039;-50
2023/05/30 11:12:51;;;;;;;4.47;1.95;;;;;;;18.15;100.00;102742.69;5080564;28;20020;-44